createdAt,value
2022-08-22T00:00:16.212Z,7.80
2022-08-22T00:03:02.493Z,7.60
2022-08-22T00:03:04.029Z,6.60
2022-08-22T00:03:09.860Z,6.40
2022-08-22T00:03:38.364Z,7.90
2022-08-22T00:06:49.431Z,8.20
2022-08-22T00:10:00.246Z,8.10
2022-08-22T00:13:14.314Z,8.00
2022-08-22T00:16:24.276Z,8.20
2022-08-22T00:19:34.274Z,8.60
2022-08-22T00:22:47.439Z,8.30
2022-08-22T00:25:57.362Z,8.30
2022-08-22T00:29:05.242Z,8.20
2022-08-22T00:32:17.261Z,8.00
2022-08-22T00:35:28.308Z,7.90
2022-08-22T00:38:41.329Z,8.00
2022-08-22T00:41:51.325Z,7.80
2022-08-22T00:45:01.349Z,7.80
2022-08-22T00:48:16.371Z,8.60
2022-08-22T00:51:29.510Z,7.70
2022-08-22T00:54:42.390Z,8.50
2022-08-22T00:57:55.412Z,8.60
2022-08-22T01:01:03.396Z,8.50
2022-08-22T01:04:13.355Z,8.70
2022-08-22T01:07:25.407Z,8.90
2022-08-22T01:10:45.406Z,8.50
2022-08-22T01:13:53.418Z,8.80
2022-08-22T01:17:06.502Z,8.10
2022-08-22T01:20:16.386Z,8.20
2022-08-22T01:23:23.476Z,8.80
2022-08-22T01:26:33.519Z,8.20
2022-08-22T01:29:42.634Z,8.90
2022-08-22T01:32:57.013Z,8.40
2022-08-22T01:36:04.478Z,8.10
2022-08-22T01:39:14.477Z,8.30
2022-08-22T01:42:24.505Z,8.50
2022-08-22T01:45:34.480Z,8.40
2022-08-22T01:48:41.511Z,8.80
2022-08-22T01:51:51.505Z,8.40
2022-08-22T01:55:01.496Z,8.70
2022-08-22T01:58:11.536Z,8.30
2022-08-22T02:01:21.567Z,8.30
2022-08-22T02:04:29.508Z,9.00
2022-08-22T02:07:36.606Z,9.10
2022-08-22T02:10:43.560Z,8.80
2022-08-22T02:13:53.552Z,9.00
2022-08-22T02:17:00.603Z,8.30
2022-08-22T02:20:13.653Z,8.50
2022-08-22T02:23:21.542Z,8.90
2022-08-22T02:26:31.594Z,8.50
2022-08-22T02:29:41.607Z,9.10
2022-08-22T02:32:51.659Z,8.60
2022-08-22T02:36:05.671Z,9.40
2022-08-22T02:39:15.640Z,9.70
2022-08-22T02:42:22.631Z,9.10
2022-08-22T02:45:39.745Z,9.20
2022-08-22T02:48:50.676Z,9.20
2022-08-22T02:52:00.610Z,9.50
2022-08-22T02:55:07.673Z,9.80
2022-08-22T02:58:14.736Z,8.90
2022-08-22T03:01:22.685Z,9.60
2022-08-22T03:04:36.711Z,8.40
2022-08-22T03:07:46.710Z,8.60
2022-08-22T03:10:53.665Z,9.50
2022-08-22T03:14:00.739Z,9.80
2022-08-22T03:17:12.813Z,10.10
2022-08-22T03:20:19.784Z,9.20
2022-08-22T03:23:29.741Z,9.60
2022-08-22T03:26:39.771Z,8.70
2022-08-22T03:29:49.844Z,9.30
2022-08-22T03:32:59.752Z,9.60
2022-08-22T03:36:06.811Z,8.80
2022-08-22T03:39:17.253Z,9.00
2022-08-22T03:42:27.758Z,10.00
2022-08-22T03:45:37.801Z,9.50
2022-08-22T03:48:44.916Z,9.50
2022-08-22T03:51:54.817Z,9.20
2022-08-22T03:55:07.777Z,8.80
2022-08-22T03:58:27.631Z,9.80
2022-08-22T04:01:38.896Z,9.30
2022-08-22T04:04:49.865Z,9.20
2022-08-22T04:07:56.956Z,9.40
2022-08-22T04:11:04.842Z,8.70
2022-08-22T04:14:11.938Z,9.30
2022-08-22T04:17:22.748Z,9.30
2022-08-22T04:20:29.879Z,9.50
2022-08-22T04:23:41.197Z,9.70
2022-08-22T04:26:48.966Z,10.30
2022-08-22T04:29:56.904Z,9.70
2022-08-22T04:33:06.916Z,10.10
2022-08-22T04:36:20.567Z,10.70
2022-08-22T04:39:27.981Z,9.30
2022-08-22T04:42:39.954Z,10.10
2022-08-22T04:45:46.972Z,10.00
2022-08-22T04:48:56.977Z,10.20
2022-08-22T04:52:07.177Z,10.10
2022-08-22T04:55:29.037Z,10.40
2022-08-22T04:58:47.056Z,11.00
2022-08-22T05:01:58.876Z,9.80
2022-08-22T05:05:13.589Z,10.40
2022-08-22T05:08:20.951Z,9.50
2022-08-22T05:11:29.056Z,10.00
2022-08-22T05:14:39.052Z,9.60
2022-08-22T05:17:48.026Z,9.80
2022-08-22T05:21:01.050Z,10.00
2022-08-22T05:24:10.995Z,9.80
2022-08-22T05:27:18.645Z,9.20
2022-08-22T05:30:26.081Z,9.70
2022-08-22T05:33:33.171Z,10.30
2022-08-22T05:36:43.110Z,9.60
2022-08-22T05:39:53.116Z,9.70
2022-08-22T05:43:03.121Z,10.70
2022-08-22T05:46:10.165Z,11.00
2022-08-22T05:49:20.192Z,11.60
2022-08-22T05:52:27.085Z,12.20
2022-08-22T05:55:38.200Z,12.40
2022-08-22T05:58:51.151Z,10.40
2022-08-22T06:02:01.302Z,8.70
2022-08-22T06:05:11.987Z,8.70
2022-08-22T06:08:21.237Z,8.80
2022-08-22T06:11:33.687Z,8.80
2022-08-22T06:14:44.258Z,7.30
2022-08-22T06:17:58.341Z,8.90
2022-08-22T06:21:06.160Z,8.70
2022-08-22T06:24:13.197Z,8.80
2022-08-22T06:27:27.319Z,8.20
2022-08-22T06:30:39.201Z,8.20
2022-08-22T06:33:55.252Z,8.20
2022-08-22T06:37:05.268Z,9.30
2022-08-22T06:40:18.267Z,8.60
2022-08-22T06:43:28.298Z,8.00
2022-08-22T06:46:38.248Z,9.60
2022-08-22T06:49:45.333Z,9.00
2022-08-22T06:52:55.522Z,9.40
2022-08-22T06:56:06.333Z,9.00
2022-08-22T06:59:21.226Z,8.80
2022-08-22T07:02:31.246Z,8.80
2022-08-22T07:05:41.373Z,8.80
2022-08-22T07:08:49.344Z,8.90
2022-08-22T07:11:59.455Z,10.20
2022-08-22T07:15:07.331Z,8.80
2022-08-22T07:18:15.371Z,8.00
2022-08-22T07:21:25.365Z,8.90
2022-08-22T07:24:34.354Z,8.80
2022-08-22T07:27:58.598Z,9.10
2022-08-22T07:31:08.411Z,9.10
2022-08-22T07:34:54.399Z,9.00
2022-08-22T07:38:21.423Z,8.80
2022-08-22T07:41:31.407Z,9.00
2022-08-22T07:44:38.409Z,8.50
2022-08-22T07:47:49.529Z,9.40
2022-08-22T07:50:57.580Z,8.50
2022-08-22T07:54:05.485Z,9.70
2022-08-22T07:57:15.517Z,8.90
2022-08-22T08:00:35.476Z,8.70
2022-08-22T08:03:48.495Z,9.00
2022-08-22T08:06:58.479Z,9.90
2022-08-22T08:10:07.128Z,8.10
2022-08-22T08:13:17.661Z,8.80
2022-08-22T08:16:27.593Z,8.80
2022-08-22T08:19:46.555Z,8.20
2022-08-22T08:22:54.503Z,8.60
2022-08-22T08:26:09.529Z,8.90
2022-08-22T08:29:22.601Z,8.20
2022-08-22T08:32:43.573Z,8.80
2022-08-22T08:36:02.514Z,8.40
2022-08-22T08:39:15.605Z,7.90
2022-08-22T08:42:30.613Z,9.00
2022-08-22T08:45:59.548Z,9.10
2022-08-22T08:49:09.604Z,9.80
2022-08-22T08:55:49.560Z,9.10
2022-08-22T08:59:02.711Z,8.70
2022-08-22T09:02:09.601Z,8.40
2022-08-22T09:05:24.473Z,8.40
2022-08-22T09:08:40.635Z,8.40
2022-08-22T09:11:53.689Z,7.50
2022-08-22T09:15:00.654Z,8.60
2022-08-22T09:18:12.332Z,7.30
2022-08-22T09:21:30.436Z,8.00
2022-08-22T09:24:44.720Z,7.90
2022-08-22T09:27:51.672Z,7.90
2022-08-22T09:30:59.762Z,7.50
2022-08-22T09:34:07.698Z,7.90
2022-08-22T09:37:20.692Z,8.60
2022-08-22T09:40:15.948Z,9.50
2022-08-22T09:43:34.736Z,8.30
2022-08-22T09:46:44.829Z,9.00
2022-08-22T09:49:52.814Z,8.00
2022-08-22T09:53:05.768Z,7.50
2022-08-22T09:56:15.832Z,8.40
2022-08-22T09:59:24.709Z,8.90
2022-08-22T10:02:19.800Z,7.70
2022-08-22T10:05:39.454Z,8.20
2022-08-22T10:08:50.834Z,8.50
2022-08-22T10:12:03.501Z,9.00
2022-08-22T10:15:10.828Z,10.00
2022-08-22T10:18:18.810Z,8.80
2022-08-22T10:21:31.833Z,9.60
2022-08-22T10:24:53.799Z,8.30
2022-08-22T10:28:05.916Z,8.00
2022-08-22T10:31:30.859Z,8.10
2022-08-22T10:34:28.883Z,8.40
2022-08-22T10:37:46.160Z,8.30
2022-08-22T10:41:01.057Z,8.10
2022-08-22T10:44:11.904Z,8.70
2022-08-22T10:47:25.914Z,8.40
2022-08-22T10:50:21.854Z,7.60
2022-08-22T10:53:36.209Z,8.20
2022-08-22T10:56:36.946Z,6.70
2022-08-22T11:02:37.012Z,6.40
2022-08-22T11:05:54.073Z,7.30
2022-08-22T11:09:09.010Z,6.10
2022-08-22T11:12:34.813Z,5.70
2022-08-22T11:15:45.923Z,5.90
2022-08-22T11:19:02.983Z,4.90
2022-08-22T11:22:25.028Z,5.80
2022-08-22T11:25:38.820Z,5.30
2022-08-22T11:28:50.896Z,5.30
2022-08-22T11:32:13.118Z,5.50
2022-08-22T11:35:24.032Z,5.20
2022-08-22T11:41:34.098Z,5.50
2022-08-22T11:47:35.045Z,5.10
2022-08-22T11:50:48.070Z,5.40
2022-08-22T11:54:22.209Z,5.80
2022-08-22T11:57:39.126Z,5.70
2022-08-22T12:00:55.214Z,6.00
2022-08-22T12:04:09.857Z,5.70
2022-08-22T12:07:23.176Z,5.10
2022-08-22T12:10:19.199Z,5.10
2022-08-22T12:13:35.028Z,5.30
2022-08-22T12:16:47.431Z,5.40
2022-08-22T12:20:16.158Z,4.70
2022-08-22T12:23:43.668Z,5.70
2022-08-22T12:27:07.887Z,5.50
2022-08-22T12:30:18.187Z,5.80
2022-08-22T12:33:29.172Z,5.20
2022-08-22T12:36:40.158Z,5.10
2022-08-22T12:39:50.164Z,5.70
2022-08-22T12:42:46.410Z,4.60
2022-08-22T12:45:59.224Z,4.60
2022-08-22T12:49:10.369Z,4.60
2022-08-22T12:52:23.195Z,4.50
2022-08-22T12:55:24.836Z,4.70
2022-08-22T12:58:36.259Z,4.30
2022-08-22T13:01:51.352Z,4.80
2022-08-22T13:05:03.275Z,4.10
2022-08-22T13:08:13.225Z,4.90
2022-08-22T13:11:27.306Z,6.50
2022-08-22T13:14:29.316Z,8.20
2022-08-22T13:17:42.365Z,8.90
2022-08-22T13:21:00.299Z,8.60
2022-08-22T13:24:16.913Z,9.00
2022-08-22T13:27:34.056Z,9.90
2022-08-22T13:34:20.286Z,11.80
2022-08-22T13:37:34.402Z,9.80
2022-08-22T13:40:46.422Z,9.50
2022-08-22T13:43:59.376Z,9.90
2022-08-22T13:47:14.517Z,13.90
2022-08-22T13:50:37.521Z,11.00
2022-08-22T13:54:10.818Z,10.50
2022-08-22T13:57:23.836Z,10.40
2022-08-22T14:00:32.345Z,11.40
2022-08-22T14:03:44.377Z,10.80
2022-08-22T14:10:02.908Z,24.60
2022-08-22T14:13:10.417Z,16.50
2022-08-22T14:16:22.523Z,13.70
2022-08-22T14:19:53.142Z,10.10
2022-08-22T14:23:07.304Z,10.70
2022-08-22T14:26:20.593Z,9.40
2022-08-22T14:29:40.497Z,10.20
2022-08-22T14:32:53.469Z,9.50
2022-08-22T14:36:06.476Z,7.30
2022-08-22T14:39:20.801Z,5.20
2022-08-22T14:42:33.940Z,5.00
2022-08-22T14:45:44.650Z,4.60
2022-08-22T14:48:58.597Z,4.30
2022-08-22T14:52:09.661Z,4.50
2022-08-22T14:55:21.580Z,3.80
2022-08-22T14:58:37.607Z,4.10
2022-08-22T15:01:53.718Z,4.00
2022-08-22T15:05:01.640Z,4.60
2022-08-22T15:08:14.651Z,4.10
2022-08-22T15:11:27.631Z,3.90
2022-08-22T15:14:52.060Z,4.10
2022-08-22T15:18:03.801Z,4.60
2022-08-22T15:20:59.762Z,2.90
2022-08-22T15:24:10.611Z,2.20
2022-08-22T15:27:20.657Z,2.70
2022-08-22T15:30:31.608Z,3.40
2022-08-22T15:33:43.330Z,2.80
2022-08-22T15:36:53.651Z,2.30
2022-08-22T15:40:25.777Z,2.70
2022-08-22T15:43:40.702Z,4.10
2022-08-22T15:46:51.636Z,4.00
2022-08-22T15:50:09.790Z,4.10
2022-08-22T15:53:27.708Z,3.80
2022-08-22T15:56:43.696Z,4.60
2022-08-22T16:00:12.329Z,4.00
2022-08-22T16:03:11.726Z,3.80
2022-08-22T16:09:16.755Z,3.10
2022-08-22T16:15:19.771Z,3.40
2022-08-22T16:18:54.714Z,3.70
2022-08-22T16:22:04.821Z,3.60
2022-08-22T16:25:14.765Z,4.00
2022-08-22T16:28:12.850Z,4.00
2022-08-22T16:31:27.846Z,4.10
2022-08-22T16:34:35.731Z,3.90
2022-08-22T16:37:58.931Z,3.80
2022-08-22T16:41:10.773Z,3.70
2022-08-22T16:44:17.788Z,4.60
2022-08-22T16:47:30.889Z,3.80
2022-08-22T16:50:41.848Z,4.20
2022-08-22T16:53:51.867Z,4.10
2022-08-22T16:56:49.846Z,3.70
2022-08-22T17:00:02.887Z,3.50
2022-08-22T17:02:58.866Z,3.30
2022-08-22T17:06:14.924Z,3.40
2022-08-22T17:09:28.882Z,4.30
2022-08-22T17:12:54.939Z,4.30
2022-08-22T17:16:05.985Z,4.40
2022-08-22T17:19:25.905Z,4.50
2022-08-22T17:22:43.945Z,3.70
2022-08-22T17:25:58.161Z,3.80
2022-08-22T17:29:07.910Z,3.80
2022-08-22T17:32:03.005Z,4.20
2022-08-22T17:35:15.959Z,4.40
2022-08-22T17:38:30.983Z,4.50
2022-08-22T17:41:43.898Z,3.90
2022-08-22T17:44:54.025Z,4.20
2022-08-22T17:48:01.980Z,4.40
2022-08-22T17:51:19.058Z,4.40
2022-08-22T17:54:39.981Z,4.30
2022-08-22T17:57:47.087Z,4.00
2022-08-22T18:00:47.129Z,3.90
2022-08-22T18:03:57.981Z,3.70
2022-08-22T18:07:11.066Z,4.00
2022-08-22T18:10:22.089Z,4.00
2022-08-22T18:13:33.013Z,4.20
2022-08-22T18:16:44.079Z,3.70
2022-08-22T18:19:54.143Z,3.30
2022-08-22T18:23:21.754Z,3.70
2022-08-22T18:26:59.099Z,3.60
2022-08-22T18:30:12.080Z,3.70
2022-08-22T18:33:25.111Z,4.20
2022-08-22T18:36:35.075Z,4.30
2022-08-22T18:39:42.617Z,4.30
2022-08-22T18:45:49.161Z,4.60
2022-08-22T18:49:17.268Z,4.30
2022-08-22T18:52:32.142Z,4.50
2022-08-22T18:55:47.226Z,4.40
2022-08-22T18:59:05.511Z,4.40
2022-08-22T19:02:14.138Z,4.20
2022-08-22T19:05:09.142Z,4.30
2022-08-22T19:08:30.257Z,4.40
2022-08-22T19:11:40.120Z,5.00
2022-08-22T19:14:50.224Z,4.70
2022-08-22T19:18:00.260Z,4.30
2022-08-22T19:21:13.891Z,4.30
2022-08-22T19:24:24.251Z,4.10
2022-08-22T19:27:37.201Z,4.60
2022-08-22T19:30:48.220Z,4.90
2022-08-22T19:34:07.254Z,4.70
2022-08-22T19:37:32.101Z,4.50
2022-08-22T19:41:12.244Z,4.70
2022-08-22T19:44:26.311Z,4.50
2022-08-22T19:47:39.290Z,4.70
2022-08-22T19:50:49.229Z,4.80
2022-08-22T19:53:59.293Z,5.70
2022-08-22T19:57:09.942Z,5.60
2022-08-22T20:00:23.362Z,4.90
2022-08-22T20:03:21.354Z,4.60
2022-08-22T20:09:24.392Z,5.00
2022-08-22T20:15:29.361Z,4.80
2022-08-22T20:18:53.478Z,5.00
2022-08-22T20:22:03.525Z,5.10
2022-08-22T20:25:16.840Z,5.00
2022-08-22T20:28:47.382Z,5.60
2022-08-22T20:31:58.918Z,5.30
2022-08-22T20:35:09.384Z,5.20
2022-08-22T20:38:22.382Z,5.00
2022-08-22T20:41:35.708Z,5.10
2022-08-22T20:44:31.671Z,4.80
2022-08-22T20:47:49.518Z,4.60
2022-08-22T20:51:00.493Z,5.10
2022-08-22T20:54:15.269Z,5.40
2022-08-22T20:57:25.467Z,5.00
2022-08-22T21:00:32.457Z,4.60
2022-08-22T21:03:30.602Z,4.60
2022-08-22T21:06:41.519Z,4.20
2022-08-22T21:09:51.505Z,3.90
2022-08-22T21:13:04.536Z,4.20
2022-08-22T21:16:03.519Z,3.40
2022-08-22T21:19:16.505Z,3.70
2022-08-22T21:22:23.450Z,4.00
2022-08-22T21:25:33.630Z,3.60
2022-08-22T21:28:48.576Z,4.00
2022-08-22T21:31:59.189Z,3.80
2022-08-22T21:35:14.561Z,4.30
2022-08-22T21:38:24.572Z,4.30
2022-08-22T21:41:37.644Z,4.10
2022-08-22T21:44:51.518Z,4.20
2022-08-22T21:47:49.665Z,4.30
2022-08-22T21:50:59.654Z,4.80
2022-08-22T21:54:18.242Z,4.80
2022-08-22T21:57:26.675Z,4.00
2022-08-22T22:00:33.699Z,4.60
2022-08-22T22:03:52.689Z,4.40
2022-08-22T22:07:05.620Z,4.40
2022-08-22T22:10:18.639Z,4.30
2022-08-22T22:13:28.671Z,4.00
2022-08-22T22:16:23.657Z,4.00
2022-08-22T22:19:33.616Z,4.50
2022-08-22T22:22:42.393Z,4.50
2022-08-22T22:25:59.753Z,4.20
2022-08-22T22:29:12.679Z,4.10
2022-08-22T22:32:21.639Z,4.00
2022-08-22T22:35:34.939Z,3.80
2022-08-22T22:38:47.942Z,3.80
2022-08-22T22:41:55.675Z,4.20
2022-08-22T22:45:06.863Z,4.00
2022-08-22T22:48:08.744Z,4.10
2022-08-22T22:51:21.832Z,4.50
2022-08-22T22:54:32.709Z,4.20
2022-08-22T22:57:42.669Z,3.90
2022-08-22T23:00:41.710Z,4.30
2022-08-22T23:03:53.802Z,4.20
2022-08-22T23:07:06.919Z,4.10
2022-08-22T23:10:22.078Z,3.80
2022-08-22T23:13:34.820Z,4.30
2022-08-22T23:16:46.869Z,3.80
2022-08-22T23:19:50.045Z,4.10
2022-08-22T23:23:04.877Z,3.80
2022-08-22T23:26:15.802Z,3.90
2022-08-22T23:29:23.804Z,4.40
2022-08-22T23:32:39.854Z,4.10
2022-08-22T23:39:30.107Z,4.00
2022-08-22T23:42:42.870Z,3.60
2022-08-22T23:45:52.905Z,4.10
2022-08-22T23:49:10.941Z,3.90
2022-08-22T23:55:35.953Z,3.50
2022-08-22T23:58:53.346Z,3.70
